createdAt,value
2023-01-11T00:02:00.134Z,66.44
2023-01-11T00:04:30.216Z,66.48
2023-01-11T00:06:58.177Z,66.45
2023-01-11T00:09:25.231Z,66.26
2023-01-11T00:11:52.180Z,66.71
2023-01-11T00:14:20.857Z,66.55
2023-01-11T00:16:47.702Z,66.80
2023-01-11T00:19:14.623Z,66.80
2023-01-11T00:21:41.541Z,66.12
2023-01-11T00:24:08.540Z,66.45
2023-01-11T00:26:35.419Z,66.84
2023-01-11T00:29:02.277Z,66.58
2023-01-11T00:31:30.544Z,66.70
2023-01-11T00:33:57.605Z,66.59
2023-01-11T00:36:24.443Z,66.08
2023-01-11T00:38:53.535Z,66.21
2023-01-11T00:41:40.723Z,65.96
2023-01-11T00:44:28.749Z,65.66
2023-01-11T00:47:15.548Z,66.32
2023-01-11T00:49:43.012Z,65.99
2023-01-11T00:52:10.366Z,66.30
2023-01-11T00:54:37.842Z,66.93
2023-01-11T00:57:07.209Z,67.12
2023-01-11T00:59:34.313Z,67.05
2023-01-11T01:02:02.706Z,66.48
2023-01-11T01:04:29.592Z,67.11
2023-01-11T01:06:56.642Z,67.17
2023-01-11T01:09:23.660Z,67.41
2023-01-11T01:11:50.650Z,67.42
2023-01-11T01:14:28.300Z,67.71
2023-01-11T01:16:57.618Z,67.20
2023-01-11T01:19:27.721Z,67.54
2023-01-11T01:21:56.588Z,67.48
2023-01-11T01:24:24.096Z,67.27
2023-01-11T01:26:51.626Z,67.17
2023-01-11T01:29:18.718Z,66.83
2023-01-11T01:31:45.712Z,66.74
2023-01-11T01:34:13.602Z,66.56
2023-01-11T01:36:41.819Z,66.82
2023-01-11T01:39:11.168Z,66.90
2023-01-11T01:41:38.982Z,66.78
2023-01-11T01:44:53.842Z,66.73
2023-01-11T01:47:26.428Z,66.52
2023-01-11T01:49:54.218Z,66.65
2023-01-11T01:52:28.876Z,66.79
2023-01-11T01:55:01.939Z,66.91
2023-01-11T01:57:35.746Z,67.42
2023-01-11T02:00:08.156Z,67.30
2023-01-11T02:02:37.520Z,67.77
2023-01-11T02:05:07.369Z,68.21
2023-01-11T02:07:40.534Z,68.51
2023-01-11T02:10:12.806Z,68.43
2023-01-11T02:12:46.531Z,68.04
2023-01-11T02:15:14.742Z,67.83
2023-01-11T02:17:42.150Z,68.08
2023-01-11T02:20:26.896Z,68.24
2023-01-11T02:23:41.850Z,68.15
2023-01-11T02:27:03.163Z,68.88
2023-01-11T02:29:44.729Z,68.22
2023-01-11T02:32:27.323Z,68.26
2023-01-11T02:35:13.651Z,68.32
2023-01-11T02:38:00.210Z,68.23
2023-01-11T02:40:52.637Z,67.70
2023-01-11T02:43:49.284Z,67.70
2023-01-11T02:46:30.385Z,67.45
2023-01-11T02:49:09.031Z,68.05
2023-01-11T02:51:42.577Z,67.84
2023-01-11T02:54:12.644Z,67.76
2023-01-11T02:56:45.471Z,67.47
2023-01-11T02:59:18.062Z,66.98
2023-01-11T03:01:49.528Z,66.89
2023-01-11T03:09:24.185Z,67.38
2023-01-11T03:12:29.973Z,67.68
2023-01-11T03:15:16.935Z,67.18
2023-01-11T03:18:06.861Z,67.08
2023-01-11T03:20:40.854Z,66.77
2023-01-11T03:23:18.923Z,67.63
2023-01-11T03:25:59.555Z,67.15
2023-01-11T03:28:36.742Z,67.22
2023-01-11T03:31:15.252Z,67.63
2023-01-11T03:33:55.714Z,67.99
2023-01-11T03:36:30.988Z,67.85
2023-01-11T03:39:09.630Z,68.01
2023-01-11T03:41:41.398Z,68.22
2023-01-11T03:44:12.781Z,68.85
2023-01-11T03:46:48.255Z,68.69
2023-01-11T03:49:24.925Z,69.21
2023-01-11T03:51:54.667Z,69.52
2023-01-11T03:54:26.577Z,69.35
2023-01-11T03:57:03.434Z,69.23
2023-01-11T03:59:30.755Z,69.38
2023-01-11T04:01:59.244Z,69.22
2023-01-11T04:04:28.620Z,69.05
2023-01-11T04:06:56.414Z,69.57
2023-01-11T04:09:23.394Z,69.60
2023-01-11T04:11:50.300Z,69.16
2023-01-11T04:14:17.214Z,69.03
2023-01-11T04:16:44.056Z,68.99
2023-01-11T04:19:10.914Z,68.72
2023-01-11T04:21:39.098Z,68.92
2023-01-11T04:24:06.951Z,68.57
2023-01-11T04:26:33.951Z,68.81
2023-01-11T04:29:00.860Z,69.28
2023-01-11T04:31:27.869Z,69.81
2023-01-11T04:33:54.847Z,69.27
2023-01-11T04:36:21.804Z,69.37
2023-01-11T04:38:50.082Z,69.46
2023-01-11T04:41:35.966Z,69.30
2023-01-11T04:44:02.919Z,69.78
2023-01-11T04:46:29.784Z,69.91
2023-01-11T04:48:56.702Z,70.46
2023-01-11T04:51:23.858Z,70.85
2023-01-11T04:53:52.208Z,70.29
2023-01-11T04:56:19.633Z,69.80
2023-01-11T04:58:46.830Z,70.03
2023-01-11T05:01:17.544Z,69.98
2023-01-11T05:03:45.916Z,70.03
2023-01-11T05:06:14.630Z,70.07
2023-01-11T05:08:45.977Z,69.72
2023-01-11T05:11:15.798Z,69.49
2023-01-11T05:13:42.922Z,69.37
2023-01-11T05:16:12.624Z,69.33
2023-01-11T05:18:40.963Z,69.71
2023-01-11T05:21:08.377Z,68.99
2023-01-11T05:23:36.530Z,69.34
2023-01-11T05:26:05.744Z,68.98
2023-01-11T05:28:34.861Z,69.03
2023-01-11T05:31:01.982Z,69.39
2023-01-11T05:33:29.338Z,69.32
2023-01-11T05:36:01.695Z,69.43
2023-01-11T05:38:29.644Z,69.32
2023-01-11T05:40:58.452Z,69.58
2023-01-11T05:43:27.068Z,69.99
2023-01-11T05:45:56.775Z,69.71
2023-01-11T05:48:24.614Z,69.74
2023-01-11T05:50:53.008Z,69.59
2023-01-11T05:53:23.862Z,69.16
2023-01-11T05:55:55.220Z,68.78
2023-01-11T05:58:24.040Z,68.62
2023-01-11T06:00:53.167Z,68.70
2023-01-11T06:03:23.118Z,68.85
2023-01-11T06:05:51.276Z,68.93
2023-01-11T06:08:19.518Z,69.11
2023-01-11T06:10:52.619Z,68.58
2023-01-11T06:13:28.767Z,68.39
2023-01-11T06:16:02.265Z,68.58
2023-01-11T06:18:34.451Z,68.32
2023-01-11T06:21:01.868Z,68.55
2023-01-11T06:23:31.512Z,68.28
2023-01-11T06:26:02.228Z,68.22
2023-01-11T06:28:29.114Z,68.23
2023-01-11T06:30:58.307Z,68.20
2023-01-11T06:33:27.793Z,68.17
2023-01-11T06:35:58.325Z,68.48
2023-01-11T06:38:26.478Z,68.26
2023-01-11T06:40:56.077Z,67.99
2023-01-11T06:43:24.252Z,68.00
2023-01-11T06:45:51.559Z,67.97
2023-01-11T06:48:20.291Z,67.79
2023-01-11T06:50:48.997Z,67.69
2023-01-11T06:53:17.704Z,67.53
2023-01-11T06:55:44.862Z,67.65
2023-01-11T06:58:11.860Z,67.85
2023-01-11T07:00:38.940Z,67.74
2023-01-11T07:03:06.881Z,67.54
2023-01-11T07:05:35.652Z,67.39
2023-01-11T07:08:04.048Z,67.50
2023-01-11T07:10:32.285Z,67.45
2023-01-11T07:12:59.197Z,67.46
2023-01-11T07:15:26.158Z,67.23
2023-01-11T07:17:55.564Z,67.36
2023-01-11T07:20:23.311Z,67.63
2023-01-11T07:22:50.304Z,67.74
2023-01-11T07:25:17.634Z,67.29
2023-01-11T07:27:45.860Z,67.42
2023-01-11T07:30:13.774Z,67.15
2023-01-11T07:32:40.749Z,67.00
2023-01-11T07:35:08.983Z,66.82
2023-01-11T07:37:38.012Z,66.71
2023-01-11T07:40:06.443Z,66.51
2023-01-11T07:42:52.000Z,66.86
2023-01-11T07:45:20.314Z,67.20
2023-01-11T07:47:50.506Z,66.95
2023-01-11T07:50:17.783Z,67.34
2023-01-11T07:52:47.821Z,67.18
2023-01-11T07:55:15.012Z,67.59
2023-01-11T07:57:41.889Z,67.58
2023-01-11T08:00:10.946Z,67.21
2023-01-11T08:02:39.364Z,67.07
2023-01-11T08:05:07.568Z,66.92
2023-01-11T08:07:34.449Z,66.67
2023-01-11T08:10:03.087Z,66.07
2023-01-11T08:12:51.362Z,66.09
2023-01-11T08:15:18.414Z,66.09
2023-01-11T08:17:46.611Z,65.48
2023-01-11T08:20:13.533Z,65.38
2023-01-11T08:22:40.545Z,65.18
2023-01-11T08:25:08.461Z,65.30
2023-01-11T08:27:35.469Z,65.33
2023-01-11T08:30:02.484Z,65.20
2023-01-11T08:32:29.742Z,64.83
2023-01-11T08:34:58.025Z,64.94
2023-01-11T08:37:24.939Z,64.62
2023-01-11T08:39:51.841Z,64.50
2023-01-11T08:42:18.802Z,64.46
2023-01-11T08:44:45.730Z,64.75
2023-01-11T08:47:13.793Z,64.73
2023-01-11T08:49:42.877Z,64.58
2023-01-11T08:52:16.259Z,64.47
2023-01-11T08:54:43.223Z,64.44
2023-01-11T08:57:10.710Z,64.87
2023-01-11T08:59:37.663Z,64.43
2023-01-11T09:02:06.279Z,64.20
2023-01-11T09:04:34.071Z,64.25
2023-01-11T09:07:02.270Z,64.31
2023-01-11T09:09:31.429Z,64.45
2023-01-11T09:12:00.690Z,64.33
2023-01-11T09:14:29.106Z,64.55
2023-01-11T09:16:57.077Z,64.66
2023-01-11T09:19:24.529Z,64.64
2023-01-11T09:21:52.189Z,64.56
2023-01-11T09:24:19.486Z,64.68
2023-01-11T09:26:48.293Z,64.76
2023-01-11T09:29:15.438Z,64.67
2023-01-11T09:31:42.552Z,64.54
2023-01-11T09:34:12.629Z,64.59
2023-01-11T09:36:40.651Z,64.63
2023-01-11T09:39:11.651Z,64.63
2023-01-11T09:42:05.296Z,64.43
2023-01-11T09:44:37.520Z,64.48
2023-01-11T09:47:19.476Z,64.49
2023-01-11T09:49:56.088Z,64.49
2023-01-11T09:52:36.084Z,64.47
2023-01-11T09:55:03.870Z,64.67
2023-01-11T09:57:53.598Z,64.74
2023-01-11T10:00:36.272Z,64.35
2023-01-11T10:04:03.947Z,64.93
2023-01-11T10:06:45.041Z,65.03
2023-01-11T10:18:27.732Z,65.07
2023-01-11T10:19:12.302Z,65.13
2023-01-11T10:21:43.957Z,65.37
2023-01-11T10:24:23.507Z,65.12
2023-01-11T10:26:57.510Z,64.83
2023-01-11T10:29:46.044Z,65.00
2023-01-11T10:32:53.130Z,64.93
2023-01-11T10:35:45.553Z,64.89
2023-01-11T10:38:40.834Z,64.86
2023-01-11T10:41:22.063Z,64.68
2023-01-11T10:44:04.898Z,64.59
2023-01-11T10:46:36.267Z,64.56
2023-01-11T10:49:43.908Z,64.64
2023-01-11T10:52:35.830Z,64.47
2023-01-11T10:55:13.202Z,64.41
2023-01-11T10:58:02.857Z,63.90
2023-01-11T11:00:41.848Z,63.71
2023-01-11T11:03:54.684Z,64.68
2023-01-11T11:06:41.520Z,64.22
2023-01-11T11:09:24.434Z,63.95
2023-01-11T11:11:58.795Z,63.81
2023-01-11T11:14:37.734Z,63.89
2023-01-11T11:17:20.658Z,63.72
2023-01-11T11:19:47.980Z,63.85
2023-01-11T11:22:16.576Z,63.63
2023-01-11T11:24:50.531Z,63.73
2023-01-11T11:27:26.866Z,63.94
2023-01-11T11:29:57.248Z,63.80
2023-01-11T11:32:29.789Z,63.70
2023-01-11T11:34:57.370Z,63.53
2023-01-11T11:37:32.867Z,63.38
2023-01-11T11:40:00.534Z,63.39
2023-01-11T11:42:30.250Z,63.34
2023-01-11T11:45:17.490Z,62.79
2023-01-11T11:48:02.650Z,62.92
2023-01-11T11:50:44.200Z,63.01
2023-01-11T11:53:31.207Z,62.62
2023-01-11T11:56:00.318Z,62.75
2023-01-11T11:58:28.013Z,62.74
2023-01-11T12:00:55.868Z,62.26
2023-01-11T12:03:29.328Z,61.97
2023-01-11T12:06:02.907Z,61.78
2023-01-11T12:08:35.925Z,61.49
2023-01-11T12:11:07.831Z,61.46
2023-01-11T12:13:39.002Z,61.54
2023-01-11T12:16:20.592Z,61.41
2023-01-11T12:18:48.437Z,61.01
2023-01-11T12:21:21.337Z,60.62
2023-01-11T12:24:12.980Z,60.65
2023-01-11T12:26:52.987Z,60.78
2023-01-11T12:29:50.706Z,60.52
2023-01-11T12:32:53.653Z,60.48
2023-01-11T12:35:39.250Z,59.51
2023-01-11T12:38:42.449Z,59.23
2023-01-11T12:41:50.041Z,59.03
2023-01-11T12:44:41.548Z,59.18
2023-01-11T12:47:41.160Z,58.55
2023-01-11T12:50:19.612Z,58.33
2023-01-11T12:53:07.177Z,57.95
2023-01-11T12:56:03.132Z,58.28
2023-01-11T12:58:40.162Z,58.74
2023-01-11T13:01:30.413Z,57.92
2023-01-11T13:04:20.446Z,58.16
2023-01-11T13:07:05.044Z,58.31
2023-01-11T13:09:54.039Z,57.43
2023-01-11T13:12:29.592Z,57.45
2023-01-11T13:15:19.673Z,56.73
2023-01-11T13:17:58.957Z,56.80
2023-01-11T13:20:59.542Z,56.59
2023-01-11T13:23:39.416Z,56.41
2023-01-11T13:26:21.377Z,56.29
2023-01-11T13:28:56.586Z,56.07
2023-01-11T13:31:26.238Z,55.55
2023-01-11T13:34:02.133Z,55.24
2023-01-11T13:36:40.103Z,55.04
2023-01-11T13:39:18.245Z,54.89
2023-01-11T13:41:50.827Z,54.32
2023-01-11T13:44:24.080Z,54.13
2023-01-11T13:47:10.853Z,54.31
2023-01-11T13:49:52.165Z,53.68
2023-01-11T13:52:26.826Z,53.67
2023-01-11T13:55:02.037Z,53.63
2023-01-11T13:57:40.812Z,53.57
2023-01-11T14:00:22.089Z,53.61
2023-01-11T14:02:58.777Z,53.46
2023-01-11T14:05:36.721Z,53.33
2023-01-11T14:08:45.912Z,52.92
2023-01-11T14:11:27.317Z,53.39
2023-01-11T14:14:27.067Z,53.34
2023-01-11T14:17:38.454Z,53.28
2023-01-11T14:20:23.003Z,53.57
2023-01-11T14:23:04.028Z,53.67
2023-01-11T14:25:38.149Z,53.82
2023-01-11T14:28:25.577Z,53.72
2023-01-11T14:31:23.507Z,53.43
2023-01-11T14:34:25.443Z,53.40
2023-01-11T14:37:39.981Z,53.58
2023-01-11T14:40:50.354Z,53.67
2023-01-11T14:44:00.806Z,53.60
2023-01-11T14:47:05.533Z,53.92
2023-01-11T14:49:59.360Z,53.85
2023-01-11T14:52:40.105Z,53.10
2023-01-11T14:55:19.023Z,52.81
2023-01-11T14:58:03.785Z,52.77
2023-01-11T15:01:11.279Z,52.75
2023-01-11T15:03:54.541Z,52.94
2023-01-11T15:06:22.715Z,53.05
2023-01-11T15:08:54.837Z,53.03
2023-01-11T15:11:41.861Z,52.69
2023-01-11T15:14:32.696Z,53.04
2023-01-11T15:17:21.298Z,53.40
2023-01-11T15:19:51.511Z,53.45
2023-01-11T15:22:28.767Z,53.67
2023-01-11T15:25:01.320Z,53.82
2023-01-11T15:27:34.716Z,53.64
2023-01-11T15:30:04.117Z,54.02
2023-01-11T15:32:33.728Z,54.19
2023-01-11T15:35:31.483Z,54.19
2023-01-11T15:38:11.271Z,54.52
2023-01-11T15:40:43.067Z,54.54
2023-01-11T15:44:05.331Z,54.40
2023-01-11T15:47:19.872Z,54.64
2023-01-11T15:50:31.535Z,54.59
2023-01-11T15:53:50.543Z,54.16
2023-01-11T15:57:20.217Z,54.36
2023-01-11T16:00:32.830Z,54.45
2023-01-11T16:03:35.579Z,54.01
2023-01-11T16:06:17.631Z,54.70
2023-01-11T16:08:56.867Z,54.50
2023-01-11T16:11:34.746Z,54.94
2023-01-11T16:14:39.797Z,55.33
2023-01-11T16:17:12.839Z,55.40
2023-01-11T16:19:44.752Z,55.60
2023-01-11T16:22:19.557Z,55.84
2023-01-11T16:24:52.439Z,56.04
2023-01-11T16:27:26.799Z,56.01
2023-01-11T16:29:56.026Z,56.00
2023-01-11T16:32:26.987Z,55.63
2023-01-11T16:34:55.584Z,55.86
2023-01-11T16:37:35.024Z,55.72
2023-01-11T16:40:12.588Z,55.85
2023-01-11T16:42:46.393Z,56.16
2023-01-11T16:45:19.643Z,56.05
2023-01-11T16:48:04.470Z,56.27
2023-01-11T16:50:33.246Z,56.12
2023-01-11T16:53:02.232Z,56.22
2023-01-11T16:55:36.457Z,56.13
2023-01-11T16:58:06.933Z,56.18
2023-01-11T17:00:39.495Z,56.01
2023-01-11T17:03:22.481Z,56.14
2023-01-11T17:06:15.718Z,55.92
2023-01-11T17:08:45.220Z,56.13
2023-01-11T17:11:28.078Z,56.08
2023-01-11T17:14:27.782Z,56.18
2023-01-11T17:17:01.185Z,56.54
2023-01-11T17:19:31.971Z,56.34
2023-01-11T17:22:05.381Z,56.27
2023-01-11T17:24:40.311Z,56.48
2023-01-11T17:27:17.752Z,56.45
2023-01-11T17:29:47.338Z,56.68
2023-01-11T17:32:23.162Z,56.54
2023-01-11T17:34:51.790Z,56.70
2023-01-11T17:37:19.983Z,56.67
2023-01-11T17:39:53.336Z,56.81
2023-01-11T17:42:39.590Z,57.03
2023-01-11T17:45:21.101Z,56.78
2023-01-11T17:47:52.807Z,56.92
2023-01-11T17:50:28.993Z,57.03
2023-01-11T17:53:06.136Z,56.96
2023-01-11T17:55:34.420Z,56.77
2023-01-11T17:58:19.211Z,56.86
2023-01-11T18:01:16.123Z,57.00
2023-01-11T18:03:48.055Z,56.76
2023-01-11T18:06:26.041Z,56.66
2023-01-11T18:08:55.794Z,56.60
2023-01-11T18:11:27.058Z,56.71
2023-01-11T18:13:59.892Z,56.44
2023-01-11T18:16:27.271Z,56.58
2023-01-11T18:18:56.712Z,55.92
2023-01-11T18:21:40.163Z,56.39
2023-01-11T18:24:43.375Z,56.29
2023-01-11T18:27:28.267Z,56.07
2023-01-11T18:29:58.552Z,55.98
2023-01-11T18:32:28.440Z,55.69
2023-01-11T18:34:59.007Z,55.83
2023-01-11T18:37:26.089Z,55.70
2023-01-11T18:39:53.442Z,55.77
2023-01-11T18:42:28.574Z,55.92
2023-01-11T18:44:55.903Z,55.92
2023-01-11T18:47:27.040Z,55.71
2023-01-11T18:49:56.499Z,55.87
2023-01-11T18:52:27.428Z,55.99
2023-01-11T18:54:56.238Z,55.83
2023-01-11T18:57:24.155Z,55.96
2023-01-11T18:59:55.433Z,56.39
2023-01-11T19:02:26.734Z,56.34
2023-01-11T19:04:56.918Z,56.38
2023-01-11T19:07:25.390Z,56.53
2023-01-11T19:09:56.680Z,56.41
2023-01-11T19:12:24.147Z,56.50
2023-01-11T19:14:51.504Z,56.51
2023-01-11T19:17:19.130Z,56.48
2023-01-11T19:19:46.704Z,56.95
2023-01-11T19:22:14.957Z,56.80
2023-01-11T19:24:42.222Z,56.60
2023-01-11T19:27:09.373Z,57.00
2023-01-11T19:29:36.290Z,57.03
2023-01-11T19:32:03.315Z,56.95
2023-01-11T19:34:32.313Z,56.93
2023-01-11T19:37:00.207Z,56.86
2023-01-11T19:39:28.735Z,56.90
2023-01-11T19:41:57.867Z,56.77
2023-01-11T19:44:29.233Z,57.12
2023-01-11T19:47:10.446Z,57.09
2023-01-11T19:49:39.725Z,57.16
2023-01-11T19:52:12.968Z,57.39
2023-01-11T19:54:43.017Z,57.13
2023-01-11T19:57:10.776Z,56.94
2023-01-11T19:59:37.680Z,56.86
2023-01-11T20:02:05.366Z,56.47
2023-01-11T20:04:33.088Z,56.86
2023-01-11T20:07:00.508Z,56.60
2023-01-11T20:09:27.398Z,56.55
2023-01-11T20:11:55.741Z,56.63
2023-01-11T20:14:23.027Z,56.27
2023-01-11T20:16:49.867Z,56.41
2023-01-11T20:19:17.290Z,56.09
2023-01-11T20:21:44.250Z,56.40
2023-01-11T20:24:13.653Z,56.24
2023-01-11T20:26:41.174Z,56.22
2023-01-11T20:29:09.512Z,56.25
2023-01-11T20:31:36.644Z,55.91
2023-01-11T20:34:12.032Z,55.96
2023-01-11T20:36:39.690Z,55.99
2023-01-11T20:39:07.163Z,56.13
2023-01-11T20:41:52.300Z,56.05
2023-01-11T20:44:24.354Z,56.01
2023-01-11T20:46:53.418Z,55.93
2023-01-11T20:49:23.904Z,55.86
2023-01-11T20:51:51.695Z,55.85
2023-01-11T20:54:18.932Z,55.96
2023-01-11T20:56:46.828Z,55.85
2023-01-11T20:59:17.576Z,56.01
2023-01-11T21:01:46.097Z,56.05
2023-01-11T21:04:14.436Z,55.93
2023-01-11T21:06:45.444Z,55.81
2023-01-11T21:09:16.519Z,55.80
2023-01-11T21:11:44.106Z,56.06
2023-01-11T21:14:14.078Z,56.04
2023-01-11T21:16:44.097Z,55.86
2023-01-11T21:19:14.765Z,55.50
2023-01-11T21:21:42.255Z,55.46
2023-01-11T21:24:13.255Z,55.16
2023-01-11T21:26:42.224Z,55.04
2023-01-11T21:29:11.698Z,55.32
2023-01-11T21:31:40.165Z,55.52
2023-01-11T21:34:07.711Z,55.27
2023-01-11T21:36:36.092Z,54.89
2023-01-11T21:39:03.874Z,54.88
2023-01-11T21:41:51.633Z,55.51
2023-01-11T21:44:20.206Z,55.44
2023-01-11T21:46:47.833Z,55.47
2023-01-11T21:49:16.077Z,55.35
2023-01-11T21:51:44.471Z,56.04
2023-01-11T21:54:14.072Z,56.23
2023-01-11T21:56:44.218Z,56.09
2023-01-11T21:59:12.438Z,57.06
2023-01-11T22:01:41.879Z,57.02
2023-01-11T22:04:10.982Z,56.92
2023-01-11T22:06:39.928Z,56.99
2023-01-11T22:09:10.432Z,57.66
2023-01-11T22:11:37.617Z,57.75
2023-01-11T22:14:06.514Z,58.12
2023-01-11T22:16:35.058Z,58.31
2023-01-11T22:19:03.138Z,59.18
2023-01-11T22:21:30.020Z,59.54
2023-01-11T22:23:58.834Z,59.69
2023-01-11T22:26:33.194Z,59.48
2023-01-11T22:29:12.737Z,59.25
2023-01-11T22:31:42.352Z,60.05
2023-01-11T22:34:09.924Z,60.54
2023-01-11T22:36:37.019Z,60.44
2023-01-11T22:39:04.539Z,60.27
2023-01-11T22:41:33.140Z,60.41
2023-01-11T22:44:00.097Z,60.73
2023-01-11T22:46:28.629Z,60.92
2023-01-11T22:48:55.515Z,61.11
2023-01-11T22:51:26.575Z,60.59
2023-01-11T22:53:55.610Z,60.50
2023-01-11T22:56:26.080Z,60.51
2023-01-11T22:58:55.541Z,60.23
2023-01-11T23:01:25.673Z,60.16
2023-01-11T23:03:54.580Z,59.90
2023-01-11T23:06:25.369Z,59.67
2023-01-11T23:08:53.377Z,60.02
2023-01-11T23:11:42.440Z,59.89
2023-01-11T23:14:14.321Z,59.75
2023-01-11T23:16:42.757Z,59.96
2023-01-11T23:19:11.984Z,59.83
2023-01-11T23:21:41.620Z,59.94
2023-01-11T23:24:09.681Z,59.81
2023-01-11T23:26:37.461Z,59.69
2023-01-11T23:29:04.926Z,59.44
2023-01-11T23:31:33.364Z,59.97
2023-01-11T23:34:02.353Z,59.84
2023-01-11T23:36:33.413Z,59.76
2023-01-11T23:39:02.512Z,59.90
2023-01-11T23:41:48.177Z,60.28
2023-01-11T23:44:17.209Z,60.17
2023-01-11T23:47:04.929Z,59.59
2023-01-11T23:49:32.762Z,59.52
2023-01-11T23:52:00.786Z,59.04
2023-01-11T23:54:30.423Z,59.02
2023-01-11T23:56:58.805Z,58.66
2023-01-11T23:59:25.876Z,58.52
